createdAt,value
2018-01-27T00:01:10.406Z,1.30
2018-01-27T00:03:37.890Z,1.30
2018-01-27T00:06:06.150Z,1.30
2018-01-27T00:08:33.670Z,1.30
2018-01-27T00:11:01.150Z,1.30
2018-01-27T00:13:28.671Z,1.30
2018-01-27T00:15:56.148Z,1.40
2018-01-27T00:18:23.657Z,1.40
2018-01-27T00:20:52.197Z,1.40
2018-01-27T00:23:19.687Z,1.30
2018-01-27T00:25:47.220Z,1.40
2018-01-27T00:28:14.707Z,1.40
2018-01-27T00:30:42.279Z,1.40
2018-01-27T00:33:10.531Z,1.40
2018-01-27T00:35:38.017Z,1.50
2018-01-27T00:38:06.296Z,1.50
2018-01-27T00:40:34.555Z,1.50
2018-01-27T00:43:02.051Z,1.50
2018-01-27T00:45:29.545Z,1.50
2018-01-27T00:47:57.027Z,1.40
2018-01-27T00:50:24.532Z,1.50
2018-01-27T00:52:52.012Z,1.50
2018-01-27T00:55:19.502Z,1.50
2018-01-27T00:57:48.504Z,1.50
2018-01-27T01:00:16.752Z,1.50
2018-01-27T01:02:44.230Z,1.50
2018-01-27T01:05:11.717Z,1.50
2018-01-27T01:07:39.190Z,1.50
2018-01-27T01:10:06.674Z,1.50
2018-01-27T01:12:34.183Z,1.50
2018-01-27T01:15:02.431Z,1.50
2018-01-27T01:17:30.020Z,1.50
2018-01-27T01:19:58.278Z,1.50
2018-01-27T01:22:25.767Z,1.50
2018-01-27T01:24:53.245Z,1.50
2018-01-27T01:27:20.771Z,1.50
2018-01-27T01:29:49.053Z,1.50
2018-01-27T01:32:17.297Z,1.50
2018-01-27T01:34:44.786Z,1.50
2018-01-27T01:37:13.043Z,1.50
2018-01-27T01:39:40.519Z,1.50
2018-01-27T01:42:08.819Z,1.50
2018-01-27T01:44:36.305Z,1.50
2018-01-27T01:47:03.794Z,1.50
2018-01-27T01:49:32.046Z,1.60
2018-01-27T01:51:59.572Z,1.50
2018-01-27T01:54:27.074Z,1.60
2018-01-27T01:56:54.560Z,1.60
2018-01-27T01:59:22.806Z,1.60
2018-01-27T02:01:50.286Z,1.60
2018-01-27T02:04:18.544Z,1.60
2018-01-27T02:06:47.538Z,1.60
2018-01-27T02:09:15.016Z,1.60
2018-01-27T02:11:43.302Z,1.60
2018-01-27T02:14:11.572Z,1.60
2018-01-27T02:16:39.828Z,1.60
2018-01-27T02:19:07.325Z,1.60
2018-01-27T02:21:34.805Z,1.60
2018-01-27T02:24:02.282Z,1.70
2018-01-27T02:26:29.882Z,1.70
2018-01-27T02:28:58.121Z,1.70
2018-01-27T02:31:25.609Z,1.60
2018-01-27T02:33:53.101Z,1.60
2018-01-27T02:36:20.642Z,1.70
2018-01-27T02:38:48.885Z,1.70
2018-01-27T02:41:16.369Z,1.60
2018-01-27T02:43:44.639Z,1.70
2018-01-27T02:46:12.927Z,1.70
2018-01-27T02:48:41.199Z,1.70
2018-01-27T02:51:09.446Z,1.70
2018-01-27T02:53:36.927Z,1.60
2018-01-27T02:56:04.438Z,1.70
2018-01-27T02:58:31.923Z,1.70
2018-01-27T03:00:59.576Z,1.70
2018-01-27T03:03:27.062Z,1.70
2018-01-27T03:05:54.646Z,1.70
2018-01-27T03:08:22.186Z,1.70
2018-01-27T03:10:50.789Z,1.70
2018-01-27T03:13:19.026Z,1.70
2018-01-27T03:15:46.508Z,1.70
2018-01-27T03:18:14.760Z,1.70
2018-01-27T03:20:43.011Z,1.70
2018-01-27T03:23:10.998Z,1.70
2018-01-27T03:25:38.489Z,1.70
2018-01-27T03:28:06.729Z,1.70
2018-01-27T03:30:34.206Z,1.70
2018-01-27T03:33:01.707Z,1.70
2018-01-27T03:35:29.707Z,1.70
2018-01-27T03:37:57.191Z,1.70
2018-01-27T03:40:24.691Z,1.70
2018-01-27T03:42:52.229Z,1.70
2018-01-27T03:45:20.471Z,1.70
2018-01-27T03:47:47.955Z,1.70
2018-01-27T03:50:15.519Z,1.70
2018-01-27T03:52:43.770Z,1.80
2018-01-27T03:55:11.359Z,1.70
2018-01-27T03:57:39.598Z,1.80
2018-01-27T04:00:07.099Z,1.70
2018-01-27T04:02:35.346Z,1.80
2018-01-27T04:05:03.654Z,1.80
2018-01-27T04:07:31.908Z,1.80
2018-01-27T04:10:00.164Z,1.80
2018-01-27T04:12:27.664Z,1.80
2018-01-27T04:14:55.918Z,1.80
2018-01-27T04:17:23.420Z,1.80
2018-01-27T04:19:50.898Z,1.80
2018-01-27T04:22:18.406Z,1.80
2018-01-27T04:24:46.682Z,1.80
2018-01-27T04:27:14.928Z,1.80
2018-01-27T04:29:42.404Z,1.80
2018-01-27T04:32:09.901Z,1.80
2018-01-27T04:34:37.385Z,1.80
2018-01-27T04:37:04.951Z,1.80
2018-01-27T04:39:32.441Z,1.80
2018-01-27T04:41:59.943Z,1.80
2018-01-27T04:44:27.424Z,1.80
2018-01-27T04:46:54.940Z,1.80
2018-01-27T04:49:23.198Z,1.90
2018-01-27T04:51:50.769Z,1.80
2018-01-27T04:54:19.115Z,1.80
2018-01-27T04:56:46.670Z,1.80
2018-01-27T04:59:14.272Z,1.90
2018-01-27T05:01:42.594Z,1.90
2018-01-27T05:04:10.102Z,1.90
2018-01-27T05:06:38.382Z,1.90
2018-01-27T05:09:06.686Z,1.90
2018-01-27T05:11:34.194Z,1.80
2018-01-27T05:14:01.777Z,1.80
2018-01-27T05:16:30.042Z,1.80
2018-01-27T05:18:58.328Z,1.80
2018-01-27T05:21:26.778Z,1.80
2018-01-27T05:23:54.272Z,1.80
2018-01-27T05:26:22.565Z,1.80
2018-01-27T05:28:50.052Z,1.80
2018-01-27T05:31:17.553Z,1.80
2018-01-27T05:33:45.030Z,1.80
2018-01-27T05:36:13.286Z,1.90
2018-01-27T05:38:40.777Z,1.90
2018-01-27T05:41:08.305Z,1.90
2018-01-27T05:43:35.913Z,1.90
2018-01-27T05:46:03.419Z,1.90
2018-01-27T05:48:30.997Z,1.90
2018-01-27T05:50:59.247Z,1.80
2018-01-27T05:53:27.502Z,1.80
2018-01-27T05:55:54.974Z,1.80
2018-01-27T05:58:22.455Z,1.80
2018-01-27T06:00:50.715Z,1.80
2018-01-27T06:03:18.198Z,1.80
2018-01-27T06:05:46.459Z,1.90
2018-01-27T06:08:13.940Z,1.80
2018-01-27T06:10:42.210Z,1.90
2018-01-27T06:13:10.482Z,1.90
2018-01-27T06:15:38.746Z,1.90
2018-01-27T06:18:06.228Z,1.90
2018-01-27T06:20:34.494Z,1.90
2018-01-27T06:23:02.749Z,1.90
2018-01-27T06:25:30.338Z,1.90
2018-01-27T06:27:58.586Z,1.90
2018-01-27T06:30:26.199Z,1.90
2018-01-27T06:32:53.894Z,1.90
2018-01-27T06:35:21.394Z,1.90
2018-01-27T06:37:49.647Z,1.90
2018-01-27T06:40:17.125Z,1.90
2018-01-27T06:42:45.435Z,1.90
2018-01-27T06:45:12.927Z,1.90
2018-01-27T06:47:40.411Z,1.90
2018-01-27T06:50:08.667Z,2.00
2018-01-27T06:52:36.263Z,2.00
2018-01-27T06:55:04.535Z,2.00
2018-01-27T06:57:32.783Z,2.00
2018-01-27T07:00:00.271Z,2.00
2018-01-27T07:02:28.644Z,2.00
2018-01-27T07:04:56.258Z,2.00
2018-01-27T07:07:23.767Z,2.00
2018-01-27T07:09:52.018Z,2.00
2018-01-27T07:12:19.494Z,1.90
2018-01-27T07:14:47.754Z,1.90
2018-01-27T07:17:16.006Z,1.90
2018-01-27T07:19:43.513Z,1.90
2018-01-27T07:22:11.778Z,1.90
2018-01-27T07:24:39.352Z,1.90
2018-01-27T07:27:07.597Z,1.80
2018-01-27T07:29:35.073Z,1.80
2018-01-27T07:32:02.552Z,1.80
2018-01-27T07:34:30.807Z,1.90
2018-01-27T07:36:58.301Z,1.80
2018-01-27T07:39:25.773Z,1.90
2018-01-27T07:41:53.255Z,1.90
2018-01-27T07:44:20.741Z,1.90
2018-01-27T07:46:48.225Z,2.00
2018-01-27T07:49:15.742Z,2.00
2018-01-27T07:51:43.343Z,2.00
2018-01-27T07:54:10.831Z,2.00
2018-01-27T07:56:38.311Z,2.10
2018-01-27T07:59:05.818Z,2.00
2018-01-27T08:01:33.298Z,2.00
2018-01-27T08:04:00.782Z,2.00
2018-01-27T08:06:28.386Z,2.10
2018-01-27T08:08:56.630Z,2.10
2018-01-27T08:11:24.106Z,2.00
2018-01-27T08:13:52.350Z,2.00
2018-01-27T08:16:19.828Z,2.00
2018-01-27T08:18:47.306Z,2.10
2018-01-27T08:21:15.562Z,2.10
2018-01-27T08:23:43.038Z,2.10
2018-01-27T08:26:11.282Z,2.20
2018-01-27T08:28:38.789Z,2.10
2018-01-27T08:31:06.273Z,2.20
2018-01-27T08:33:33.755Z,2.30
2018-01-27T08:36:01.256Z,2.40
2018-01-27T08:38:29.501Z,2.30
2018-01-27T08:40:57.047Z,2.30
2018-01-27T08:43:24.543Z,2.40
2018-01-27T08:45:52.785Z,2.60
2018-01-27T08:48:20.289Z,2.60
2018-01-27T08:50:48.594Z,2.60
2018-01-27T08:53:16.075Z,2.60
2018-01-27T08:55:43.563Z,2.60
2018-01-27T08:58:11.264Z,2.60
2018-01-27T09:00:38.754Z,2.60
2018-01-27T09:03:06.251Z,2.60
2018-01-27T09:05:34.541Z,2.70
2018-01-27T09:08:02.811Z,2.60
2018-01-27T09:10:31.100Z,2.70
2018-01-27T09:12:59.388Z,2.60
2018-01-27T09:15:26.874Z,2.60
2018-01-27T09:17:54.387Z,2.60
2018-01-27T09:20:22.649Z,2.60
2018-01-27T09:22:51.112Z,2.60
2018-01-27T09:25:18.586Z,2.60
2018-01-27T09:27:46.847Z,2.70
2018-01-27T09:30:14.322Z,2.70
2018-01-27T09:32:42.570Z,2.90
2018-01-27T09:35:10.066Z,2.80
2018-01-27T09:37:38.316Z,3.00
2018-01-27T09:40:05.786Z,2.90
2018-01-27T09:42:34.050Z,2.90
2018-01-27T09:45:02.290Z,2.90
2018-01-27T09:47:29.765Z,2.80
2018-01-27T09:49:57.267Z,2.80
2018-01-27T09:52:25.523Z,3.00
2018-01-27T09:54:53.021Z,3.00
2018-01-27T09:57:20.523Z,3.00
2018-01-27T09:59:48.009Z,3.10
2018-01-27T10:02:16.263Z,3.30
2018-01-27T10:04:43.853Z,3.20
2018-01-27T10:07:12.095Z,3.30
2018-01-27T10:09:39.574Z,3.30
2018-01-27T10:12:07.155Z,3.40
2018-01-27T10:14:35.413Z,3.80
2018-01-27T10:17:03.666Z,4.00
2018-01-27T10:19:31.150Z,4.00
2018-01-27T10:21:59.434Z,4.20
2018-01-27T10:24:27.680Z,4.40
2018-01-27T10:26:56.711Z,4.30
2018-01-27T10:29:24.962Z,4.40
2018-01-27T10:31:53.258Z,4.70
2018-01-27T10:34:21.516Z,4.70
2018-01-27T10:36:49.102Z,4.70
2018-01-27T10:39:17.362Z,4.80
2018-01-27T10:41:44.933Z,4.70
2018-01-27T10:44:13.178Z,4.70
2018-01-27T10:46:40.663Z,4.70
2018-01-27T10:49:08.914Z,4.40
2018-01-27T10:51:36.400Z,4.40
2018-01-27T10:54:04.670Z,4.30
2018-01-27T10:56:32.965Z,4.30
2018-01-27T10:59:01.267Z,4.20
2018-01-27T11:01:28.749Z,4.10
2018-01-27T11:03:56.249Z,4.20
2018-01-27T11:06:24.539Z,4.30
2018-01-27T11:08:52.017Z,4.30
2018-01-27T11:11:19.541Z,4.30
2018-01-27T11:13:47.846Z,4.20
2018-01-27T11:16:16.084Z,4.20
2018-01-27T11:18:43.578Z,4.20
2018-01-27T11:21:11.067Z,4.30
2018-01-27T11:23:38.571Z,4.30
2018-01-27T11:26:06.835Z,4.30
2018-01-27T11:28:35.126Z,4.30
2018-01-27T11:31:03.385Z,4.30
2018-01-27T11:33:30.870Z,4.30
2018-01-27T11:35:58.410Z,4.30
2018-01-27T11:38:26.656Z,4.50
2018-01-27T11:40:54.171Z,4.50
2018-01-27T11:43:21.654Z,4.40
2018-01-27T11:45:49.133Z,4.50
2018-01-27T11:48:16.622Z,4.50
2018-01-27T11:50:44.866Z,4.50
2018-01-27T11:53:12.353Z,4.50
2018-01-27T11:55:40.668Z,4.40
2018-01-27T11:58:09.926Z,4.40
2018-01-27T12:00:37.500Z,4.40
2018-01-27T12:03:06.918Z,4.40
2018-01-27T12:05:34.449Z,4.40
2018-01-27T12:08:03.083Z,4.50
2018-01-27T12:10:30.625Z,4.60
2018-01-27T12:12:58.064Z,4.70
2018-01-27T12:15:26.592Z,4.50
2018-01-27T12:17:54.133Z,4.50
2018-01-27T12:20:21.617Z,4.60
2018-01-27T12:22:49.095Z,4.50
2018-01-27T12:25:18.090Z,4.40
2018-01-27T12:27:45.579Z,4.40
2018-01-27T12:30:13.823Z,4.50
2018-01-27T12:32:41.327Z,4.40
2018-01-27T12:35:08.812Z,4.30
2018-01-27T12:37:36.814Z,4.30
2018-01-27T12:40:05.817Z,4.30
2018-01-27T12:42:33.318Z,4.30
2018-01-27T12:45:00.920Z,4.30
2018-01-27T12:47:28.510Z,4.30
2018-01-27T12:49:56.788Z,4.30
2018-01-27T12:52:25.068Z,4.40
2018-01-27T12:54:53.334Z,4.30
2018-01-27T12:57:21.586Z,4.30
2018-01-27T12:59:49.124Z,4.20
2018-01-27T13:02:16.592Z,4.30
2018-01-27T13:04:44.081Z,4.30
2018-01-27T13:07:11.651Z,4.30
2018-01-27T13:09:39.917Z,4.20
2018-01-27T13:12:07.411Z,4.10
2018-01-27T13:14:34.937Z,4.10
2018-01-27T13:17:03.215Z,4.10
2018-01-27T13:19:31.458Z,4.10
2018-01-27T13:21:58.947Z,4.10
2018-01-27T13:24:27.266Z,4.10
2018-01-27T13:26:54.747Z,4.10
2018-01-27T13:29:22.222Z,4.20
2018-01-27T13:31:49.726Z,4.40
2018-01-27T13:34:17.203Z,4.60
2018-01-27T13:36:44.744Z,4.70
2018-01-27T13:39:12.198Z,4.80
2018-01-27T13:41:40.454Z,4.80
2018-01-27T13:44:08.702Z,4.70
2018-01-27T13:46:36.227Z,4.60
2018-01-27T13:49:03.701Z,4.70
2018-01-27T13:51:31.217Z,4.80
2018-01-27T13:53:59.465Z,4.60
2018-01-27T13:56:27.049Z,4.60
2018-01-27T13:58:55.291Z,4.50
2018-01-27T14:01:22.809Z,4.40
2018-01-27T14:03:50.356Z,4.40
2018-01-27T14:06:17.847Z,4.40
2018-01-27T14:08:45.353Z,4.40
2018-01-27T14:11:13.601Z,4.40
2018-01-27T14:13:41.085Z,4.30
2018-01-27T14:16:08.651Z,4.30
2018-01-27T14:18:36.895Z,4.30
2018-01-27T14:21:04.378Z,4.30
2018-01-27T14:23:31.882Z,4.40
2018-01-27T14:25:59.398Z,4.40
2018-01-27T14:28:26.966Z,4.30
2018-01-27T14:30:55.234Z,4.20
2018-01-27T14:33:23.482Z,4.20
2018-01-27T14:35:50.958Z,4.20
2018-01-27T14:38:18.770Z,4.20
2018-01-27T14:40:46.412Z,4.20
2018-01-27T14:43:14.678Z,4.00
2018-01-27T14:45:42.978Z,4.00
2018-01-27T14:48:11.199Z,4.00
2018-01-27T14:50:39.428Z,4.00
2018-01-27T14:53:06.917Z,4.00
2018-01-27T14:55:34.403Z,4.00
2018-01-27T14:58:03.415Z,3.90
2018-01-27T15:00:31.673Z,3.90
2018-01-27T15:02:59.159Z,3.90
2018-01-27T15:05:27.403Z,3.90
2018-01-27T15:07:54.899Z,3.90
2018-01-27T15:10:22.377Z,3.90
2018-01-27T15:12:49.882Z,3.80
2018-01-27T15:15:17.390Z,3.80
2018-01-27T15:17:44.923Z,3.80
2018-01-27T15:20:13.166Z,3.80
2018-01-27T15:22:40.654Z,3.90
2018-01-27T15:25:08.955Z,3.80
2018-01-27T15:27:36.730Z,3.80
2018-01-27T15:30:04.316Z,3.80
2018-01-27T15:32:31.812Z,3.80
2018-01-27T15:35:00.069Z,3.70
2018-01-27T15:37:27.558Z,3.70
2018-01-27T15:39:55.148Z,3.70
2018-01-27T15:42:22.630Z,3.60
2018-01-27T15:44:50.163Z,3.50
2018-01-27T15:47:17.646Z,3.50
2018-01-27T15:49:45.174Z,3.40
2018-01-27T15:52:12.699Z,3.40
2018-01-27T15:54:41.062Z,3.40
2018-01-27T15:57:09.436Z,3.30
2018-01-27T15:59:37.182Z,3.30
2018-01-27T16:02:05.711Z,3.30
2018-01-27T16:04:33.295Z,3.30
2018-01-27T16:07:01.063Z,3.20
2018-01-27T16:09:29.547Z,3.20
2018-01-27T16:11:57.411Z,3.20
2018-01-27T16:14:25.054Z,3.20
2018-01-27T16:16:52.631Z,3.10
2018-01-27T16:19:20.171Z,3.10
2018-01-27T16:21:48.571Z,3.10
2018-01-27T16:24:16.436Z,3.10
2018-01-27T16:26:44.065Z,3.10
2018-01-27T16:29:12.154Z,3.10
2018-01-27T16:31:39.789Z,3.10
2018-01-27T16:34:08.419Z,3.10
2018-01-27T16:36:36.122Z,3.10
2018-01-27T16:39:04.034Z,3.00
2018-01-27T16:41:31.562Z,3.00
2018-01-27T16:43:59.065Z,3.00
2018-01-27T16:46:26.559Z,3.00
2018-01-27T16:48:54.142Z,3.00
2018-01-27T16:51:21.858Z,3.00
2018-01-27T16:53:49.380Z,3.00
2018-01-27T16:56:18.030Z,3.00
2018-01-27T16:58:45.574Z,2.90
2018-01-27T17:01:13.122Z,2.90
2018-01-27T17:03:40.614Z,2.90
2018-01-27T17:06:08.168Z,2.90
2018-01-27T17:08:35.963Z,2.90
2018-01-27T17:11:04.229Z,2.90
2018-01-27T17:13:31.921Z,2.90
2018-01-27T17:15:59.803Z,2.90
2018-01-27T17:18:27.567Z,2.90
2018-01-27T17:20:57.175Z,2.80
2018-01-27T17:23:25.657Z,2.80
2018-01-27T17:25:54.241Z,2.80
2018-01-27T17:28:22.115Z,2.80
2018-01-27T17:30:50.077Z,2.80
2018-01-27T17:33:18.459Z,2.80
2018-01-27T17:35:46.124Z,2.80
2018-01-27T17:38:13.767Z,2.80
2018-01-27T17:40:41.750Z,2.80
2018-01-27T17:43:09.821Z,2.80
2018-01-27T17:45:37.510Z,3.00
2018-01-27T17:48:05.996Z,3.10
2018-01-27T17:50:33.652Z,3.10
2018-01-27T17:53:01.296Z,3.20
2018-01-27T17:55:29.807Z,3.20
2018-01-27T17:57:57.570Z,3.10
2018-01-27T18:00:25.168Z,3.20
2018-01-27T18:02:52.754Z,3.20
2018-01-27T18:05:20.312Z,3.20
2018-01-27T18:07:48.595Z,3.20
2018-01-27T18:10:16.258Z,3.20
2018-01-27T18:12:44.120Z,3.20
2018-01-27T18:15:11.973Z,3.20
2018-01-27T18:17:39.857Z,3.20
2018-01-27T18:20:07.397Z,3.30
2018-01-27T18:22:35.639Z,3.20
2018-01-27T18:25:03.125Z,3.20
2018-01-27T18:27:32.585Z,3.10
2018-01-27T18:30:00.209Z,3.10
2018-01-27T18:32:28.511Z,3.10
2018-01-27T18:34:56.081Z,3.00
2018-01-27T18:37:23.717Z,3.00
2018-01-27T18:39:51.448Z,3.00
2018-01-27T18:42:19.277Z,3.10
2018-01-27T18:44:46.883Z,3.10
2018-01-27T18:47:14.673Z,3.10
2018-01-27T18:49:42.470Z,3.10
2018-01-27T18:52:10.076Z,3.00
2018-01-27T18:54:38.566Z,3.00
2018-01-27T18:57:06.284Z,3.00
2018-01-27T18:59:33.918Z,3.00
2018-01-27T19:02:01.526Z,3.00
2018-01-27T19:04:29.102Z,3.00
2018-01-27T19:06:57.352Z,2.90
2018-01-27T19:09:24.829Z,2.90
2018-01-27T19:11:53.083Z,2.90
2018-01-27T19:14:20.569Z,2.90
2018-01-27T19:16:48.819Z,2.90
2018-01-27T19:19:16.393Z,2.90
2018-01-27T19:21:44.645Z,2.90
2018-01-27T19:24:12.133Z,2.80
2018-01-27T19:35:55.659Z,20.30
2018-01-27T19:38:23.152Z,20.80
2018-01-27T19:40:50.639Z,20.30
2018-01-27T19:43:19.671Z,22.20
2018-01-27T19:45:47.207Z,21.90
2018-01-27T19:48:15.466Z,13.30
2018-01-27T19:50:43.744Z,8.80
2018-01-27T19:53:11.234Z,8.60
2018-01-27T19:55:38.714Z,6.50
2018-01-27T19:58:06.210Z,5.20
2018-01-27T20:00:33.698Z,4.50
2018-01-27T20:03:01.206Z,4.00
2018-01-27T20:05:28.709Z,3.70
2018-01-27T20:07:56.958Z,3.20
2018-01-27T20:10:25.218Z,3.10
2018-01-27T20:12:52.739Z,3.10
2018-01-27T20:15:20.220Z,3.10
2018-01-27T20:17:47.707Z,3.10
2018-01-27T20:20:16.100Z,3.10
2018-01-27T20:22:43.585Z,3.10
2018-01-27T20:25:11.067Z,3.10
2018-01-27T20:27:38.589Z,3.00
2018-01-27T20:30:06.835Z,2.90
2018-01-27T20:32:34.322Z,2.90
2018-01-27T20:35:02.603Z,2.90
2018-01-27T20:37:30.853Z,2.90
2018-01-27T20:39:58.346Z,2.90
2018-01-27T20:42:25.917Z,2.90
2018-01-27T20:44:53.451Z,2.90
2018-01-27T20:47:21.702Z,3.00
2018-01-27T20:49:49.190Z,3.00
2018-01-27T20:55:47.154Z,2.90
2018-01-27T20:58:14.638Z,2.80
2018-01-27T21:00:42.884Z,2.80
2018-01-27T21:03:10.478Z,2.80
2018-01-27T21:05:38.765Z,2.90
2018-01-27T21:08:06.748Z,2.90
2018-01-27T21:10:34.234Z,2.90
2018-01-27T21:13:01.736Z,2.90
2018-01-27T21:15:29.978Z,3.00
2018-01-27T21:17:57.705Z,2.90
2018-01-27T21:20:25.274Z,3.00
2018-01-27T21:22:52.752Z,3.00
2018-01-27T21:25:20.246Z,3.00
2018-01-27T21:27:48.501Z,2.90
2018-01-27T21:30:15.995Z,2.90
2018-01-27T21:32:44.249Z,3.00
2018-01-27T21:35:12.519Z,2.90
2018-01-27T21:37:39.997Z,2.90
2018-01-27T21:40:08.275Z,2.90
2018-01-27T21:42:36.514Z,2.90
2018-01-27T21:45:03.995Z,2.90
2018-01-27T21:47:31.486Z,2.90
2018-01-27T21:49:59.023Z,2.80
2018-01-27T21:52:27.278Z,2.90
2018-01-27T21:54:54.874Z,2.90
2018-01-27T21:57:22.419Z,2.90
2018-01-27T21:59:50.698Z,3.00
2018-01-27T22:02:18.962Z,2.90
2018-01-27T22:04:46.440Z,2.90
2018-01-27T22:07:14.708Z,3.00
2018-01-27T22:09:43.006Z,3.00
2018-01-27T22:12:10.490Z,3.00
2018-01-27T22:14:37.978Z,2.90
2018-01-27T22:17:05.465Z,2.90
2018-01-27T22:19:33.701Z,2.90
2018-01-27T22:22:01.190Z,2.80
2018-01-27T22:24:29.441Z,2.80
2018-01-27T22:26:56.931Z,2.80
2018-01-27T22:29:25.299Z,2.80
2018-01-27T22:31:53.583Z,2.90
2018-01-27T22:34:21.830Z,2.90
2018-01-27T22:36:49.331Z,2.80
2018-01-27T22:39:16.888Z,2.80
2018-01-27T22:41:45.856Z,2.80
2018-01-27T22:44:13.337Z,2.80
2018-01-27T22:46:41.589Z,2.80
2018-01-27T22:49:09.074Z,2.80
2018-01-27T22:51:36.583Z,2.80
2018-01-27T22:54:04.138Z,2.80
2018-01-27T22:56:31.586Z,2.80
2018-01-27T22:58:59.082Z,2.80
2018-01-27T23:01:26.576Z,2.80
2018-01-27T23:03:54.052Z,2.80
2018-01-27T23:06:21.540Z,2.80
2018-01-27T23:08:49.030Z,2.80
2018-01-27T23:11:17.328Z,2.80
2018-01-27T23:13:44.798Z,2.80
2018-01-27T23:16:12.298Z,2.80
2018-01-27T23:18:39.778Z,2.80
2018-01-27T23:21:08.262Z,2.70
2018-01-27T23:23:36.506Z,2.70
2018-01-27T23:26:03.984Z,2.70
2018-01-27T23:28:32.226Z,2.60
2018-01-27T23:30:59.724Z,2.60
2018-01-27T23:33:28.001Z,2.70
2018-01-27T23:35:56.281Z,2.80
2018-01-27T23:38:23.798Z,2.80
2018-01-27T23:40:51.281Z,2.80
2018-01-27T23:43:19.571Z,2.70
2018-01-27T23:45:47.855Z,2.90
2018-01-27T23:48:16.143Z,2.80
2018-01-27T23:50:43.677Z,2.80
2018-01-27T23:53:11.163Z,2.70
2018-01-27T23:55:38.663Z,2.70
2018-01-27T23:58:06.359Z,2.70
